createdAt,value
2022-10-02T00:02:42.877Z,98492.63
2022-10-02T00:05:27.088Z,98488.94
2022-10-02T00:08:24.953Z,98498.03
2022-10-02T00:10:57.949Z,98495.50
2022-10-02T00:13:41.356Z,98484.16
2022-10-02T00:16:18.909Z,98473.13
2022-10-02T00:18:45.943Z,98453.00
2022-10-02T00:21:27.356Z,98434.31
2022-10-02T00:24:02.146Z,98428.56
2022-10-02T00:26:42.138Z,98425.72
2022-10-02T00:29:29.682Z,98424.16
2022-10-02T00:32:22.226Z,98424.50
2022-10-02T00:35:00.925Z,98426.31
2022-10-02T00:37:43.459Z,98419.13
2022-10-02T00:40:34.390Z,98407.19
2022-10-02T00:43:19.103Z,98391.63
2022-10-02T00:45:54.901Z,98396.25
2022-10-02T00:48:31.419Z,98402.16
2022-10-02T00:51:23.089Z,98391.00
2022-10-02T00:53:52.761Z,98398.28
2022-10-02T00:56:35.441Z,98374.13
2022-10-02T00:59:28.285Z,98371.25
2022-10-02T01:02:04.246Z,98359.25
2022-10-02T01:04:33.914Z,98374.13
2022-10-02T01:07:01.004Z,98362.28
2022-10-02T01:09:27.989Z,98361.53
2022-10-02T01:11:55.501Z,98345.63
2022-10-02T01:14:32.064Z,98353.88
2022-10-02T01:16:58.756Z,98353.31
2022-10-02T01:19:37.732Z,98345.53
2022-10-02T01:22:07.405Z,98344.94
2022-10-02T01:24:37.470Z,98325.81
2022-10-02T01:27:04.278Z,98315.16
2022-10-02T01:29:30.919Z,98314.53
2022-10-02T01:31:57.646Z,98298.50
2022-10-02T01:34:24.422Z,98302.22
2022-10-02T01:36:51.125Z,98291.47
2022-10-02T01:39:18.030Z,98297.09
2022-10-02T01:41:45.583Z,98287.63
2022-10-02T01:44:12.984Z,98274.47
2022-10-02T01:46:54.839Z,98275.94
2022-10-02T01:49:39.822Z,98279.28
2022-10-02T01:52:20.227Z,98278.53
2022-10-02T01:55:05.614Z,98272.75
2022-10-02T01:58:16.746Z,98260.00
2022-10-02T02:01:00.643Z,98254.84
2022-10-02T02:03:48.562Z,98248.03
2022-10-02T02:06:27.332Z,98254.59
2022-10-02T02:09:04.470Z,98248.94
2022-10-02T02:11:31.401Z,98232.19
2022-10-02T02:14:16.674Z,98222.03
2022-10-02T02:16:50.652Z,98212.75
2022-10-02T02:19:45.462Z,98197.06
2022-10-02T02:22:42.751Z,98193.69
2022-10-02T02:25:26.837Z,98191.47
2022-10-02T02:27:57.010Z,98186.53
2022-10-02T02:30:24.703Z,98182.34
2022-10-02T02:32:57.314Z,98166.09
2022-10-02T02:35:34.337Z,98160.00
2022-10-02T02:38:04.669Z,98152.94
2022-10-02T02:40:33.427Z,98148.25
2022-10-02T02:43:03.428Z,98140.38
2022-10-02T02:45:33.785Z,98138.44
2022-10-02T02:48:08.850Z,98128.38
2022-10-02T02:50:43.877Z,98121.31
2022-10-02T02:53:15.390Z,98118.44
2022-10-02T02:55:58.545Z,98110.03
2022-10-02T02:58:45.851Z,98101.16
2022-10-02T03:01:12.477Z,98089.34
2022-10-02T03:03:39.159Z,98087.28
2022-10-02T03:06:21.251Z,98091.34
2022-10-02T03:08:50.512Z,98087.75
2022-10-02T03:11:54.909Z,98077.22
2022-10-02T03:14:21.450Z,98086.53
2022-10-02T03:17:03.809Z,98080.56
2022-10-02T03:19:33.496Z,98070.28
2022-10-02T03:22:24.839Z,98068.75
2022-10-02T03:24:54.288Z,98066.94
2022-10-02T03:27:31.397Z,98062.91
2022-10-02T03:30:05.332Z,98054.56
2022-10-02T03:32:33.355Z,98059.22
2022-10-02T03:35:01.217Z,98067.84
2022-10-02T03:37:28.781Z,98067.72
2022-10-02T03:40:02.100Z,98079.31
2022-10-02T03:42:31.951Z,98084.59
2022-10-02T03:44:58.631Z,98074.13
2022-10-02T03:47:25.238Z,98069.69
2022-10-02T03:49:51.944Z,98077.94
2022-10-02T03:52:20.768Z,98086.38
2022-10-02T03:54:49.518Z,98091.03
2022-10-02T03:57:21.556Z,98072.84
2022-10-02T04:00:09.295Z,98038.88
2022-10-02T04:02:38.408Z,98067.28
2022-10-02T04:05:32.775Z,98058.81
2022-10-02T04:08:14.639Z,98054.75
2022-10-02T04:11:06.786Z,98065.88
2022-10-02T04:13:38.775Z,98063.94
2022-10-02T04:16:10.659Z,98045.19
2022-10-02T04:19:01.232Z,98040.88
2022-10-02T04:21:39.008Z,98044.28
2022-10-02T04:24:08.818Z,98039.19
2022-10-02T04:26:38.304Z,98019.72
2022-10-02T04:29:26.313Z,98015.75
2022-10-02T04:31:55.876Z,98018.91
2022-10-02T04:34:22.599Z,98017.78
2022-10-02T04:37:22.829Z,98013.00
2022-10-02T04:40:08.502Z,98006.06
2022-10-02T04:43:19.583Z,97994.72
2022-10-02T04:46:13.525Z,97976.31
2022-10-02T04:49:05.472Z,97964.81
2022-10-02T04:51:53.254Z,97945.81
2022-10-02T04:54:42.185Z,97951.78
2022-10-02T04:57:43.931Z,97954.78
2022-10-02T05:00:10.767Z,97952.16
2022-10-02T05:02:44.562Z,97945.94
2022-10-02T05:05:35.995Z,97943.31
2022-10-02T05:08:25.791Z,97928.16
2022-10-02T05:11:18.315Z,97924.09
2022-10-02T05:13:52.370Z,97921.31
2022-10-02T05:16:21.641Z,97936.38
2022-10-02T05:19:20.853Z,97925.97
2022-10-02T05:22:12.242Z,97924.47
2022-10-02T05:24:44.747Z,97938.69
2022-10-02T05:27:33.161Z,97963.78
2022-10-02T05:30:07.714Z,97977.31
2022-10-02T05:32:58.054Z,97963.72
2022-10-02T05:35:28.642Z,97954.47
2022-10-02T05:38:29.363Z,97930.34
2022-10-02T05:41:19.093Z,97934.19
2022-10-02T05:44:03.228Z,97923.47
2022-10-02T05:47:02.833Z,97917.88
2022-10-02T05:49:34.900Z,97914.31
2022-10-02T05:52:14.681Z,97935.41
2022-10-02T05:54:57.711Z,97939.00
2022-10-02T05:57:41.485Z,97933.63
2022-10-02T06:00:24.179Z,97944.56
2022-10-02T06:03:13.291Z,97927.53
2022-10-02T06:05:59.799Z,97934.47
2022-10-02T06:08:35.881Z,97920.72
2022-10-02T06:11:10.168Z,97933.75
2022-10-02T06:13:41.266Z,97922.53
2022-10-02T06:16:22.555Z,97944.50
2022-10-02T06:18:53.277Z,97945.50
2022-10-02T06:21:19.813Z,97954.91
2022-10-02T06:23:50.012Z,97954.91
2022-10-02T06:26:29.177Z,97958.38
2022-10-02T06:29:34.579Z,97948.38
2022-10-02T06:32:26.919Z,97954.53
2022-10-02T06:34:53.917Z,97969.59
2022-10-02T06:37:33.702Z,97955.88
2022-10-02T06:40:14.222Z,97949.97
2022-10-02T06:42:51.044Z,97958.97
2022-10-02T06:45:33.531Z,97945.13
2022-10-02T06:48:08.149Z,97945.50
2022-10-02T06:50:51.669Z,97955.34
2022-10-02T06:53:28.786Z,97943.06
2022-10-02T06:56:18.392Z,97950.44
2022-10-02T06:58:59.928Z,97952.16
2022-10-02T07:01:38.764Z,97942.81
2022-10-02T07:04:08.338Z,97946.00
2022-10-02T07:06:54.158Z,97938.81
2022-10-02T07:10:00.297Z,97933.13
2022-10-02T07:12:26.887Z,97929.84
2022-10-02T07:15:17.614Z,97920.53
2022-10-02T07:18:16.293Z,97918.09
2022-10-02T07:20:53.181Z,97922.03
2022-10-02T07:23:50.629Z,97919.69
2022-10-02T07:26:48.136Z,97913.66
2022-10-02T07:29:38.547Z,97914.75
2022-10-02T07:32:24.157Z,97918.25
2022-10-02T07:35:05.848Z,97910.34
2022-10-02T07:37:49.385Z,97912.84
2022-10-02T07:40:38.584Z,97903.59
2022-10-02T07:43:59.511Z,97903.91
2022-10-02T07:46:26.062Z,97907.25
2022-10-02T07:49:14.226Z,97903.47
2022-10-02T07:52:00.982Z,97886.94
2022-10-02T07:54:36.670Z,97897.53
2022-10-02T07:57:33.156Z,97895.59
2022-10-02T08:00:07.910Z,97883.25
2022-10-02T08:02:51.038Z,97883.78
2022-10-02T08:05:39.821Z,97875.50
2022-10-02T08:08:17.086Z,97856.38
2022-10-02T08:10:49.281Z,97838.94
2022-10-02T08:13:24.848Z,97846.19
2022-10-02T08:15:55.473Z,97830.66
2022-10-02T08:18:34.819Z,97819.44
2022-10-02T08:21:03.261Z,97804.03
2022-10-02T08:23:55.274Z,97818.13
2022-10-02T08:26:34.508Z,97821.31
2022-10-02T08:29:06.690Z,97812.22
2022-10-02T08:31:33.403Z,97816.25
2022-10-02T08:34:32.891Z,97812.84
2022-10-02T08:37:29.423Z,97805.63
2022-10-02T08:40:03.322Z,97820.19
2022-10-02T08:43:04.224Z,97813.34
2022-10-02T08:45:56.510Z,97794.44
2022-10-02T08:48:45.062Z,97789.31
2022-10-02T08:51:17.921Z,97771.56
2022-10-02T08:54:12.420Z,97759.41
2022-10-02T08:57:16.250Z,97744.47
2022-10-02T09:00:09.494Z,97718.50
2022-10-02T09:03:06.777Z,97713.38
2022-10-02T09:05:39.522Z,97698.47
2022-10-02T09:08:15.450Z,97681.94
2022-10-02T09:11:10.030Z,97685.16
2022-10-02T09:13:40.513Z,97672.25
2022-10-02T09:16:30.072Z,97671.84
2022-10-02T09:19:01.119Z,97676.13
2022-10-02T09:22:03.433Z,97655.19
2022-10-02T09:24:56.170Z,97666.69
2022-10-02T09:27:50.889Z,97646.16
2022-10-02T09:30:53.507Z,97639.75
2022-10-02T09:33:58.631Z,97629.31
2022-10-02T09:36:53.498Z,97631.09
2022-10-02T09:39:40.302Z,97622.16
2022-10-02T09:42:41.174Z,97614.69
2022-10-02T09:46:01.707Z,97620.66
2022-10-02T09:48:59.344Z,97619.84
2022-10-02T09:52:06.498Z,97612.59
2022-10-02T09:54:48.130Z,97608.13
2022-10-02T09:57:35.963Z,97623.06
2022-10-02T10:00:12.218Z,97613.44
2022-10-02T10:03:13.494Z,97604.44
2022-10-02T10:06:17.757Z,97605.41
2022-10-02T10:08:59.665Z,97612.13
2022-10-02T10:11:56.217Z,97600.94
2022-10-02T10:14:56.869Z,97625.16
2022-10-02T10:17:56.180Z,97635.19
2022-10-02T10:20:58.446Z,97619.06
2022-10-02T10:24:19.339Z,97624.06
2022-10-02T10:27:07.971Z,97636.94
2022-10-02T10:29:45.611Z,97649.56
2022-10-02T10:32:51.323Z,97666.72
2022-10-02T10:35:43.210Z,97660.91
2022-10-02T10:38:43.328Z,97666.25
2022-10-02T10:41:19.451Z,97658.50
2022-10-02T10:44:10.766Z,97700.03
2022-10-02T10:47:01.874Z,97728.31
2022-10-02T10:49:35.528Z,97739.34
2022-10-02T10:52:40.172Z,97720.47
2022-10-02T10:55:34.563Z,97731.06
2022-10-02T10:58:25.616Z,97757.41
2022-10-02T11:01:14.926Z,97752.28
2022-10-02T11:04:03.372Z,97740.47
2022-10-02T11:06:35.974Z,97757.19
2022-10-02T11:09:21.147Z,97749.38
2022-10-02T11:11:57.680Z,97757.13
2022-10-02T11:14:34.657Z,97743.31
2022-10-02T11:17:39.862Z,97743.19
2022-10-02T11:20:15.424Z,97698.69
2022-10-02T11:23:12.363Z,97723.16
2022-10-02T11:26:00.817Z,97732.81
2022-10-02T11:28:56.353Z,97702.91
2022-10-02T11:31:55.745Z,97719.22
2022-10-02T11:34:53.252Z,97731.78
2022-10-02T11:37:37.845Z,97733.19
2022-10-02T11:40:46.741Z,97729.03
2022-10-02T11:43:27.699Z,97739.69
2022-10-02T11:46:22.336Z,97720.19
2022-10-02T11:48:58.825Z,97694.34
2022-10-02T11:51:31.563Z,97726.53
2022-10-02T11:54:10.169Z,97723.56
2022-10-02T11:57:08.711Z,97731.44
2022-10-02T11:59:41.176Z,97743.59
2022-10-02T12:02:23.070Z,97720.47
2022-10-02T12:04:57.756Z,97734.41
2022-10-02T12:07:46.786Z,97751.31
2022-10-02T12:10:31.990Z,97719.28
2022-10-02T12:13:17.146Z,97734.84
2022-10-02T12:16:02.616Z,97738.66
2022-10-02T12:18:41.491Z,97713.06
2022-10-02T12:21:42.035Z,97738.19
2022-10-02T12:24:54.040Z,97710.78
2022-10-02T12:27:36.927Z,97709.25
2022-10-02T12:30:40.814Z,97710.56
2022-10-02T12:33:25.499Z,97710.09
2022-10-02T12:36:14.014Z,97717.34
2022-10-02T12:38:51.038Z,97695.53
2022-10-02T12:41:39.864Z,97691.03
2022-10-02T12:44:23.724Z,97700.22
2022-10-02T12:47:16.354Z,97694.47
2022-10-02T12:50:13.905Z,97671.59
2022-10-02T12:52:47.144Z,97709.88
2022-10-02T12:55:13.746Z,97697.34
2022-10-02T12:58:07.160Z,97699.41
2022-10-02T13:01:13.103Z,97694.84
2022-10-02T13:03:55.687Z,97691.75
2022-10-02T13:06:48.395Z,97699.75
2022-10-02T13:09:29.970Z,97648.88
2022-10-02T13:12:12.006Z,97697.81
2022-10-02T13:14:47.675Z,97690.19
2022-10-02T13:17:30.776Z,97678.41
2022-10-02T13:20:21.589Z,97691.28
2022-10-02T13:22:51.625Z,97692.44
2022-10-02T13:25:27.747Z,97697.56
2022-10-02T13:28:14.679Z,97694.25
2022-10-02T13:31:06.610Z,97704.38
2022-10-02T13:34:11.469Z,97709.72
2022-10-02T13:36:55.888Z,97702.22
2022-10-02T13:39:36.866Z,97710.56
2022-10-02T13:42:14.829Z,97715.44
2022-10-02T13:44:58.678Z,97708.41
2022-10-02T13:48:06.876Z,97695.66
2022-10-02T13:50:43.203Z,97721.03
2022-10-02T13:53:31.509Z,97710.53
2022-10-02T13:56:21.166Z,97711.25
2022-10-02T13:59:24.497Z,97717.22
2022-10-02T14:02:21.041Z,97706.84
2022-10-02T14:05:20.391Z,97723.25
2022-10-02T14:07:52.949Z,97724.56
2022-10-02T14:10:30.134Z,97718.72
2022-10-02T14:13:42.321Z,97724.78
2022-10-02T14:16:33.920Z,97716.31
2022-10-02T14:19:13.788Z,97721.53
2022-10-02T14:21:55.539Z,97742.56
2022-10-02T14:25:04.090Z,97730.09
2022-10-02T14:27:48.753Z,97756.75
2022-10-02T14:30:22.991Z,97731.81
2022-10-02T14:33:08.176Z,97760.09
2022-10-02T14:35:46.444Z,97769.41
2022-10-02T14:38:46.827Z,97772.66
2022-10-02T14:41:13.432Z,97776.81
2022-10-02T14:44:16.495Z,97780.06
2022-10-02T14:46:43.160Z,97797.38
2022-10-02T14:49:27.870Z,97818.19
2022-10-02T14:52:12.752Z,97804.16
2022-10-02T14:55:01.522Z,97815.03
2022-10-02T14:57:41.355Z,97822.09
2022-10-02T15:00:20.885Z,97828.50
2022-10-02T15:03:12.513Z,97828.59
2022-10-02T15:06:00.550Z,97848.66
2022-10-02T15:08:41.181Z,97857.00
2022-10-02T15:11:21.013Z,97856.38
2022-10-02T15:13:55.265Z,97853.78
2022-10-02T15:16:45.449Z,97861.72
2022-10-02T15:19:26.081Z,97858.34
2022-10-02T15:22:02.823Z,97858.34
2022-10-02T15:24:41.087Z,97864.44
2022-10-02T15:27:39.684Z,97866.28
2022-10-02T15:30:21.766Z,97836.31
2022-10-02T15:33:18.820Z,97881.22
2022-10-02T15:36:09.882Z,97892.94
2022-10-02T15:39:04.675Z,97897.09
2022-10-02T15:42:04.247Z,97878.91
2022-10-02T15:44:33.670Z,97891.25
2022-10-02T15:47:55.917Z,97878.78
2022-10-02T15:50:30.494Z,97897.44
2022-10-02T15:53:15.468Z,97896.00
2022-10-02T15:55:44.416Z,97867.38
2022-10-02T15:58:17.109Z,97896.28
2022-10-02T16:01:01.933Z,97900.66
2022-10-02T16:03:40.229Z,97917.06
2022-10-02T16:06:24.805Z,97881.25
2022-10-02T16:09:03.665Z,97886.72
2022-10-02T16:12:02.023Z,97855.28
2022-10-02T16:14:42.775Z,97838.50
2022-10-02T16:17:33.687Z,97868.03
2022-10-02T16:20:16.499Z,97868.97
2022-10-02T16:22:46.291Z,97862.91
2022-10-02T16:25:29.519Z,97825.91
2022-10-02T16:28:43.453Z,97872.63
2022-10-02T16:31:40.348Z,97877.84
2022-10-02T16:34:43.018Z,97874.28
2022-10-02T16:37:26.680Z,97865.34
2022-10-02T16:40:04.532Z,97874.63
2022-10-02T16:42:35.080Z,97861.75
2022-10-02T16:45:13.579Z,97881.81
2022-10-02T16:47:50.512Z,97883.91
2022-10-02T16:50:26.114Z,97853.41
2022-10-02T16:53:00.338Z,97872.84
2022-10-02T16:55:37.051Z,97863.22
2022-10-02T16:58:09.845Z,97877.75
2022-10-02T17:00:58.894Z,97868.13
2022-10-02T17:03:34.622Z,97889.56
2022-10-02T17:06:19.755Z,97874.19
2022-10-02T17:08:58.496Z,97896.97
2022-10-02T17:11:34.917Z,97886.63
2022-10-02T17:14:25.517Z,97882.09
2022-10-02T17:16:53.861Z,97891.69
2022-10-02T17:19:32.571Z,97846.88
2022-10-02T17:22:27.482Z,97883.91
2022-10-02T17:25:05.637Z,97872.75
2022-10-02T17:27:58.755Z,97921.81
2022-10-02T17:30:27.463Z,97898.16
2022-10-02T17:33:15.941Z,97897.50
2022-10-02T17:35:54.650Z,97894.97
2022-10-02T17:38:33.049Z,97911.59
2022-10-02T17:41:20.970Z,97881.59
2022-10-02T17:43:52.805Z,97893.53
2022-10-02T17:46:19.387Z,97911.97
2022-10-02T17:48:45.975Z,97906.78
2022-10-02T17:51:39.023Z,97906.13
2022-10-02T17:54:51.571Z,97913.97
2022-10-02T17:57:28.385Z,97924.66
2022-10-02T18:00:19.665Z,97931.75
2022-10-02T18:03:02.353Z,97940.59
2022-10-02T18:05:50.182Z,97928.84
2022-10-02T18:09:10.659Z,97923.94
2022-10-02T18:11:43.263Z,97937.31
2022-10-02T18:14:39.101Z,97935.91
2022-10-02T18:17:41.473Z,97928.94
2022-10-02T18:20:40.717Z,97930.88
2022-10-02T18:23:13.282Z,97930.31
2022-10-02T18:25:57.061Z,97947.91
2022-10-02T18:28:46.930Z,97944.16
2022-10-02T18:31:33.201Z,97965.06
2022-10-02T18:34:43.961Z,97954.09
2022-10-02T18:37:29.350Z,97947.31
2022-10-02T18:40:14.335Z,97936.81
2022-10-02T18:43:02.443Z,97954.44
2022-10-02T18:46:01.438Z,97950.25
2022-10-02T18:48:41.180Z,97953.97
2022-10-02T18:51:16.837Z,97943.97
2022-10-02T18:53:56.868Z,97950.88
2022-10-02T18:56:51.634Z,97960.16
2022-10-02T18:59:37.093Z,97953.81
2022-10-02T19:02:22.272Z,97958.38
2022-10-02T19:05:12.496Z,97931.03
2022-10-02T19:07:45.950Z,97944.03
2022-10-02T19:10:39.522Z,97939.75
2022-10-02T19:13:18.418Z,97944.13
2022-10-02T19:15:47.162Z,97940.75
2022-10-02T19:18:18.126Z,97955.03
2022-10-02T19:21:03.789Z,97942.91
2022-10-02T19:23:47.090Z,97939.56
2022-10-02T19:26:20.760Z,97938.66
2022-10-02T19:28:50.525Z,97937.13
2022-10-02T19:31:23.013Z,97926.00
2022-10-02T19:33:54.696Z,97926.97
2022-10-02T19:36:24.458Z,97939.75
2022-10-02T19:38:57.529Z,97926.41
2022-10-02T19:41:25.327Z,97938.13
2022-10-02T19:43:56.854Z,97922.44
2022-10-02T19:46:38.522Z,97918.00
2022-10-02T19:49:05.977Z,97924.03
2022-10-02T19:51:42.874Z,97918.66
2022-10-02T19:54:24.621Z,97909.81
2022-10-02T19:56:56.927Z,97907.44
2022-10-02T19:59:28.201Z,97894.50
2022-10-02T20:01:58.430Z,97894.06
2022-10-02T20:04:28.776Z,97906.00
2022-10-02T20:06:57.383Z,97890.56
2022-10-02T20:09:36.651Z,97902.56
2022-10-02T20:12:16.391Z,97906.00
2022-10-02T20:14:46.382Z,97901.53
2022-10-02T20:17:13.897Z,97895.31
2022-10-02T20:19:43.534Z,97905.25
2022-10-02T20:22:15.744Z,97904.31
2022-10-02T20:24:53.864Z,97898.75
2022-10-02T20:27:35.739Z,97903.56
2022-10-02T20:30:41.802Z,97890.72
2022-10-02T20:33:28.859Z,97897.75
2022-10-02T20:36:06.178Z,97899.38
2022-10-02T20:38:36.238Z,97889.00
2022-10-02T20:41:12.630Z,97895.75
2022-10-02T20:43:43.928Z,97896.50
2022-10-02T20:46:38.410Z,97905.09
2022-10-02T20:49:10.990Z,97905.81
2022-10-02T20:51:48.237Z,97897.06
2022-10-02T20:54:48.194Z,97895.16
2022-10-02T20:57:59.629Z,97886.22
2022-10-02T21:00:29.017Z,97908.91
2022-10-02T21:03:13.969Z,97898.41
2022-10-02T21:06:01.744Z,97891.50
2022-10-02T21:08:40.531Z,97899.31
2022-10-02T21:11:28.522Z,97894.28
2022-10-02T21:14:26.215Z,97904.63
2022-10-02T21:17:22.610Z,97900.34
2022-10-02T21:20:33.392Z,97905.81
2022-10-02T21:23:34.282Z,97903.88
2022-10-02T21:26:19.713Z,97899.66
2022-10-02T21:28:52.924Z,97903.03
2022-10-02T21:31:37.829Z,97903.03
2022-10-02T21:34:21.734Z,97910.78
2022-10-02T21:36:59.605Z,97904.06
2022-10-02T21:40:13.829Z,97908.25
2022-10-02T21:42:49.425Z,97903.22
2022-10-02T21:45:46.629Z,97897.75
2022-10-02T21:48:13.258Z,97895.16
2022-10-02T21:50:47.638Z,97904.69
2022-10-02T21:53:46.201Z,97892.53
2022-10-02T21:56:12.887Z,97896.91
2022-10-02T21:59:01.036Z,97890.59
2022-10-02T22:01:36.337Z,97887.44
2022-10-02T22:04:28.455Z,97881.88
2022-10-02T22:07:30.011Z,97875.88
2022-10-02T22:10:05.571Z,97883.63
2022-10-02T22:12:41.133Z,97880.19
2022-10-02T22:15:32.162Z,97881.88
2022-10-02T22:18:13.355Z,97874.31
2022-10-02T22:21:03.856Z,97856.94
2022-10-02T22:23:52.847Z,97883.88
2022-10-02T22:26:37.735Z,97870.13
2022-10-02T22:29:28.825Z,97881.44
2022-10-02T22:32:22.272Z,97880.72
2022-10-02T22:34:51.587Z,97886.66
2022-10-02T22:37:25.677Z,97883.13
2022-10-02T22:40:14.263Z,97873.63
2022-10-02T22:42:56.091Z,97875.31
2022-10-02T22:45:29.388Z,97880.78
2022-10-02T22:48:44.458Z,97876.25
2022-10-02T22:51:22.115Z,97881.19
2022-10-02T22:54:14.184Z,97876.25
2022-10-02T22:56:58.140Z,97876.16
2022-10-02T22:59:30.799Z,97856.94
2022-10-02T23:02:11.890Z,97866.44
2022-10-02T23:05:11.098Z,97861.47
2022-10-02T23:07:49.665Z,97866.50
2022-10-02T23:10:22.444Z,97868.94
2022-10-02T23:12:55.009Z,97864.66
2022-10-02T23:15:24.548Z,97859.44
2022-10-02T23:17:58.315Z,97862.78
2022-10-02T23:20:29.582Z,97868.09
2022-10-02T23:23:14.942Z,97863.81
2022-10-02T23:25:50.187Z,97863.13
2022-10-02T23:28:35.196Z,97850.91
2022-10-02T23:31:24.536Z,97851.72
2022-10-02T23:34:14.222Z,97847.81
2022-10-02T23:36:48.637Z,97846.59
2022-10-02T23:39:18.303Z,97842.13
2022-10-02T23:41:49.446Z,97834.41
2022-10-02T23:44:34.770Z,97850.63
2022-10-02T23:47:31.177Z,97833.69
2022-10-02T23:49:59.131Z,97836.19
2022-10-02T23:52:36.373Z,97838.09
2022-10-02T23:55:30.601Z,97825.88
2022-10-02T23:58:38.609Z,97836.66
